Home > Products > Valid Products > TAF

000
FTUS43 KPAH 291120
TAFCGI
TAF
KCGI 291120Z 2912/3012 VRB03KT P6SM BCFG BKN180
     FM291500 19007KT P6SM SCT040 BKN150=



000
FTUS43 KPAH 291120
TAFPAH
TAF
KPAH 291120Z 2912/3012 VRB03KT P6SM BCFG BKN180
     FM291500 19007KT P6SM SCT045 BKN150=



000
FTUS43 KPAH 291120
TAFCGI
TAF
KCGI 291120Z 2912/3012 VRB03KT P6SM BCFG BKN180
     FM291500 19007KT P6SM SCT040 BKN150=



000
FTUS43 KPAH 291120
TAFEVV
TAF
KEVV 291120Z 2912/3012 VRB03KT P6SM BKN180
     FM291500 20008KT P6SM SCT045 BKN150=



000
FTUS43 KPAH 291120
TAFPAH
TAF
KPAH 291120Z 2912/3012 VRB03KT P6SM BCFG BKN180
     FM291500 19007KT P6SM SCT045 BKN150=



000
FTUS43 KPAH 291120
TAFEVV
TAF
KEVV 291120Z 2912/3012 VRB03KT P6SM BKN180
     FM291500 20008KT P6SM SCT045 BKN150=



000
FTUS43 KPAH 290520
TAFPAH
TAF
KPAH 290520Z 2906/3006 VRB03KT P6SM BCFG BKN180
     FM291500 19007KT P6SM SCT045 BKN150=



000
FTUS43 KPAH 290520
TAFCGI
TAF
KCGI 290520Z 2906/3006 VRB03KT P6SM BCFG BKN180
     FM291500 19007KT P6SM SCT040 BKN150=



000
FTUS43 KPAH 290520
TAFEVV
TAF
KEVV 290520Z 2906/3006 VRB03KT P6SM BKN180
     FM291500 20008KT P6SM SCT045 BKN150=



000
FTUS43 KPAH 290520
TAFPAH
TAF
KPAH 290520Z 2906/3006 VRB03KT P6SM BCFG BKN180
     FM291500 19007KT P6SM SCT045 BKN150=



000
FTUS43 KPAH 290520
TAFEVV
TAF
KEVV 290520Z 2906/3006 VRB03KT P6SM BKN180
     FM291500 20008KT P6SM SCT045 BKN150=



000
FTUS43 KPAH 290520
TAFCGI
TAF
KCGI 290520Z 2906/3006 VRB03KT P6SM BCFG BKN180
     FM291500 19007KT P6SM SCT040 BKN150=



000
FTUS43 KPAH 282322
TAFEVV
TAF
KEVV 282322Z 2900/2924 13003KT P6SM FEW050 BKN180
     FM291500 20008KT P6SM SCT045 BKN150=



000
FTUS43 KPAH 282322
TAFCGI
TAF
KCGI 282322Z 2900/2924 17003KT P6SM BKN180
     FM291500 19007KT P6SM SCT040 BKN150=



000
FTUS43 KPAH 282322
TAFPAH
TAF
KPAH 282322Z 2900/2924 17003KT P6SM FEW050 BKN180
     FM291500 19007KT P6SM SCT045 BKN150=



000
FTUS43 KPAH 282322
TAFCGI
TAF
KCGI 282322Z 2900/2924 17003KT P6SM BKN180
     FM291500 19007KT P6SM SCT040 BKN150=



000
FTUS43 KPAH 282322
TAFEVV
TAF
KEVV 282322Z 2900/2924 13003KT P6SM FEW050 BKN180
     FM291500 20008KT P6SM SCT045 BKN150=



000
FTUS43 KPAH 282322
TAFPAH
TAF
KPAH 282322Z 2900/2924 17003KT P6SM FEW050 BKN180
     FM291500 19007KT P6SM SCT045 BKN150=



000
FTUS43 KPAH 281727
TAFCGI
TAF
KCGI 281727Z 2818/2918 16005KT P6SM FEW040 SCT250
     FM290000 17003KT P6SM BKN180
     FM291500 19007KT P6SM SCT040 BKN150=



000
FTUS43 KPAH 281727
TAFPAH
TAF
KPAH 281727Z 2818/2918 14005KT P6SM FEW045 SCT250
     FM290000 17003KT P6SM SCT060 BKN200
     FM291500 19007KT P6SM SCT045 BKN180=



000
FTUS43 KPAH 281727
TAFEVV
TAF
KEVV 281727Z 2818/2918 12006KT P6SM FEW040 SCT250
     FM290000 13003KT P6SM SCT060 BKN200
     FM291500 20008KT P6SM SCT050 BKN180=



000
FTUS43 KPAH 281153 AAA
TAFPAH
TAF AMD
KPAH 281153Z 2812/2912 00000KT P6SM BCFG SCT250
     FM281500 15005KT P6SM FEW040=



000
FTUS43 KPAH 281153 AAA
TAFPAH
TAF AMD
KPAH 281153Z 2812/2912 00000KT P6SM BCFG SCT250
     FM281500 15005KT P6SM FEW040=



000
FTUS43 KPAH 281120
TAFEVV
TAF
KEVV 281120Z 2812/2912 00000KT P6SM FEW250
     FM281500 13005KT P6SM FEW040=



000
FTUS43 KPAH 281120
TAFCGI
TAF
KCGI 281120Z 2812/2912 00000KT 1/4SM FG VV002
     FM281300 17007KT P6SM FEW040=



000
FTUS43 KPAH 281120
TAFPAH
TAF
KPAH 281120Z 2812/2912 00000KT P6SM BCFG SCT250
     FM281300 15005KT P6SM FEW040=



000
FTUS43 KPAH 281120
TAFEVV
TAF
KEVV 281120Z 2812/2912 00000KT P6SM FEW250
     FM281500 13005KT P6SM FEW040=



000
FTUS43 KPAH 281120
TAFPAH
TAF
KPAH 281120Z 2812/2912 00000KT P6SM SCT250
      TEMPO 2812/2813 4SM BR
     FM281500 15005KT P6SM FEW040=



000
FTUS43 KPAH 281120
TAFCGI
TAF
KCGI 281120Z 2812/2912 00000KT 1/4SM FG VV002
     FM281300 17007KT P6SM FEW040=



000
FTUS43 KPAH 281120
TAFPAH
TAF
KPAH 281120Z 2812/2912 00000KT P6SM SCT250
      TEMPO 2812/2813 4SM BR
     FM281500 15005KT P6SM FEW040=



000
FTUS43 KPAH 281120
TAFPAH
TAF
KPAH 281120Z 2812/2912 00000KT P6SM BCFG SCT250
     FM281300 15005KT P6SM FEW040=



000
FTUS43 KPAH 281104 AAB
TAFCGI
TAF AMD
KCGI 281104Z 2811/2906 00000KT P6SM BCFG SKC
     FM281500 17007KT P6SM FEW040=



000
FTUS43 KPAH 281104 AAB
TAFCGI
TAF AMD
KCGI 281104Z 2811/2906 00000KT P6SM BCFG SKC
     FM281500 17007KT P6SM FEW040=



000
FTUS43 KPAH 281103 AAB
TAFPAH
TAF AMD
KPAH 281103Z 2811/2906 00000KT P6SM BCFG SCT250
     FM281300 15005KT P6SM FEW040=



000
FTUS43 KPAH 281103 AAB
TAFPAH
TAF AMD
KPAH 281103Z 2811/2906 00000KT P6SM BCFG SCT250
     FM281300 15005KT P6SM FEW040=



000
FTUS43 KPAH 280938 AAA
TAFCGI
TAF AMD
KCGI 280938Z 2810/2906 00000KT 3SM BR SKC
      TEMPO 2810/2813 1/4SM FG VV002
     FM281500 17007KT P6SM FEW040=



000
FTUS43 KPAH 280520
TAFCGI
TAF
KCGI 280520Z 2806/2906 00000KT P6SM SCT250
     FM280800 00000KT 3SM BR SKC
      TEMPO 2809/2813 1/4SM FG BCFG
     FM281500 17007KT P6SM FEW040=



000
FTUS43 KPAH 280520
TAFEVV
TAF
KEVV 280520Z 2806/2906 00000KT P6SM FEW250
     FM281500 13005KT P6SM FEW040=



000
FTUS43 KPAH 280520
TAFPAH
TAF
KPAH 280520Z 2806/2906 00000KT P6SM SCT250
      TEMPO 2809/2813 4SM BR
     FM281500 15005KT P6SM FEW040=



000
FTUS43 KPAH 280520
TAFPAH
TAF
KPAH 280520Z 2806/2906 00000KT P6SM SCT250
      TEMPO 2809/2813 4SM BR
     FM281500 15005KT P6SM FEW040=



000
FTUS43 KPAH 280520
TAFEVV
TAF
KEVV 280520Z 2806/2906 00000KT P6SM FEW250
     FM281500 13005KT P6SM FEW040=



000
FTUS43 KPAH 280520
TAFCGI
TAF
KCGI 280520Z 2806/2906 00000KT P6SM SCT250
     FM280800 00000KT 3SM BR SKC
      TEMPO 2809/2813 1/4SM FG BCFG
     FM281500 17007KT P6SM FEW040=



000
FTUS43 KPAH 272325
TAFPAH
TAF
KPAH 272325Z 2800/2824 00000KT P6SM SCT250
      TEMPO 2809/2813 4SM BR
     FM281500 15005KT P6SM FEW040=



000
FTUS43 KPAH 272325
TAFEVV
TAF
KEVV 272325Z 2800/2824 00000KT P6SM FEW250
     FM281500 14005KT P6SM FEW040=



000
FTUS43 KPAH 272325
TAFCGI
TAF
KCGI 272325Z 2800/2824 00000KT P6SM SCT250
     FM280800 00000KT 3SM BR SKC
      TEMPO 2809/2813 1/4SM FG BCFG
     FM281500 17007KT P6SM FEW040=



000
FTUS43 KPAH 272325
TAFPAH
TAF
KPAH 272325Z 2800/2824 00000KT P6SM SCT250
      TEMPO 2809/2813 4SM BR
     FM281500 15005KT P6SM FEW040=



000
FTUS43 KPAH 272325
TAFEVV
TAF
KEVV 272325Z 2800/2824 00000KT P6SM FEW250
     FM281500 14005KT P6SM FEW040=



000
FTUS43 KPAH 272325
TAFCGI
TAF
KCGI 272325Z 2800/2824 00000KT P6SM SCT250
     FM280800 00000KT 3SM BR SKC
      TEMPO 2809/2813 1/4SM FG BCFG
     FM281500 17007KT P6SM FEW040=



000
FTUS43 KPAH 271720
TAFPAH
TAF
KPAH 271720Z 2718/2818 07007KT P6SM SCT045
     FM280100 00000KT P6SM SCT250
     FM281500 15005KT P6SM SKC=



000
FTUS43 KPAH 271720
TAFCGI
TAF
KCGI 271720Z 2718/2818 05005KT P6SM SCT050
     FM280000 00000KT P6SM SCT250
     FM280800 00000KT 4SM BR BCFG SKC
     FM281300 15003KT P6SM SKC
     FM281600 17007KT P6SM FEW040=



000
FTUS43 KPAH 271720
TAFEVV
TAF
KEVV 271720Z 2718/2818 06005KT P6SM SCT045
     FM280000 00000KT P6SM FEW250
     FM281500 14005KT P6SM SKC=



000
FTUS43 KPAH 271720
TAFCGI
TAF
KCGI 271720Z 2718/2818 05005KT P6SM SCT050
     FM280000 00000KT P6SM SCT250
     FM280800 00000KT 4SM BR BCFG SKC
     FM281300 15003KT P6SM SKC
     FM281600 17007KT P6SM FEW040=



000
FTUS43 KPAH 271720
TAFEVV
TAF
KEVV 271720Z 2718/2818 06005KT P6SM SCT045
     FM280000 00000KT P6SM FEW250
     FM281500 14005KT P6SM SKC=



000
FTUS43 KPAH 271720
TAFPAH
TAF
KPAH 271720Z 2718/2818 07007KT P6SM SCT045
     FM280100 00000KT P6SM SCT250
     FM281500 15005KT P6SM SKC=



000
FTUS43 KPAH 271120
TAFPAH
TAF
KPAH 271120Z 2712/2812 00000KT 5SM BR SKC
      TEMPO 2712/2713 00000KT 3SM BR
     FM271500 06005KT P6SM FEW050=



000
FTUS43 KPAH 271120
TAFEVV
TAF
KEVV 271120Z 2712/2812 00000KT P6SM SKC
     FM271500 06004KT P6SM FEW050=



000
FTUS43 KPAH 271120
TAFCGI
TAF
KCGI 271120Z 2712/2812 00000KT 4SM BR BCFG SKC
     FM271400 05005KT P6SM FEW050=



000
FTUS43 KPAH 271120
TAFEVV
TAF
KEVV 271120Z 2712/2812 00000KT P6SM SKC
     FM271500 06004KT P6SM FEW050=



000
FTUS43 KPAH 271120
TAFCGI
TAF
KCGI 271120Z 2712/2812 00000KT 4SM BR BCFG SKC
     FM271400 05005KT P6SM FEW050=



000
FTUS43 KPAH 271120
TAFPAH
TAF
KPAH 271120Z 2712/2812 00000KT 5SM BR SKC
      TEMPO 2712/2713 00000KT 3SM BR
     FM271500 06005KT P6SM FEW050=



000
FTUS43 KPAH 270916 AAB
TAFCGI
TAF AMD
KCGI 270916Z 2709/2806 00000KT 4SM BR BCFG SKC
     FM271400 05005KT P6SM FEW050=



000
FTUS43 KPAH 270916 AAB
TAFCGI
TAF AMD
KCGI 270916Z 2709/2806 00000KT 4SM BR BCFG SKC
     FM271400 05005KT P6SM FEW050=



000
FTUS43 KPAH 270753 AAB
TAFPAH
TAF AMD
KPAH 270753Z 2708/2806 00000KT 5SM BR SKC
      TEMPO 2709/2713 00000KT 3SM BR
     FM271500 06005KT P6SM FEW050=



000
FTUS43 KPAH 270751 AAA
TAFCGI
TAF AMD
KCGI 270751Z 2708/2806 00000KT 2SM BR SKC
      TEMPO 2709/2713 3/4SM BR BKN002
     FM271500 05005KT P6SM FEW050=



000
FTUS43 KPAH 270751 AAA
TAFCGI
TAF AMD
KCGI 270751Z 2708/2806 00000KT 2SM BR SKC
      TEMPO 2709/2713 3/4SM BR BKN002
     FM271500 05005KT P6SM FEW050=



000
FTUS43 KPAH 270520
TAFEVV
TAF
KEVV 270520Z 2706/2806 00000KT P6SM SKC
      TEMPO 2709/2712 4SM BR
     FM271500 06004KT P6SM FEW050=



000
FTUS43 KPAH 270520
TAFCGI
TAF
KCGI 270520Z 2706/2806 00000KT P6SM SKC
     FM270900 00000KT 3SM BR SKC
      TEMPO 2709/2713 1/4SM FG BKN001
     FM271500 05005KT P6SM FEW050=



000
FTUS43 KPAH 270520
TAFPAH
TAF
KPAH 270520Z 2706/2806 00000KT P6SM SKC
      TEMPO 2709/2713 00000KT 3SM BR
     FM271500 06005KT P6SM FEW050=



000
FTUS43 KPAH 270520
TAFEVV
TAF
KEVV 270520Z 2706/2806 00000KT P6SM SKC
      TEMPO 2709/2712 4SM BR
     FM271500 06004KT P6SM FEW050=



000
FTUS43 KPAH 270520
TAFPAH
TAF
KPAH 270520Z 2706/2806 00000KT P6SM SKC
      TEMPO 2709/2713 00000KT 3SM BR
     FM271500 06005KT P6SM FEW050=



000
FTUS43 KPAH 270520
TAFCGI
TAF
KCGI 270520Z 2706/2806 00000KT P6SM SKC
     FM270900 00000KT 3SM BR SKC
      TEMPO 2709/2713 1/4SM FG BKN001
     FM271500 05005KT P6SM FEW050=



000
FTUS43 KPAH 262325
TAFEVV
TAF
KEVV 262325Z 2700/2724 VRB02KT P6SM SKC
     FM271500 06004KT P6SM FEW050=



000
FTUS43 KPAH 262325
TAFCGI
TAF
KCGI 262325Z 2700/2724 VRB02KT P6SM SKC
      TEMPO 2709/2713 00000KT 2SM BR
     FM271500 05005KT P6SM FEW050=



000
FTUS43 KPAH 262325
TAFPAH
TAF
KPAH 262325Z 2700/2724 VRB02KT P6SM SKC
      TEMPO 2709/2713 00000KT 4SM BR
     FM271500 06005KT P6SM FEW050=



000
FTUS43 KPAH 262325
TAFPAH
TAF
KPAH 262325Z 2700/2724 VRB02KT P6SM SKC
      TEMPO 2709/2713 00000KT 4SM BR
     FM271500 06005KT P6SM FEW050=



000
FTUS43 KPAH 262325
TAFCGI
TAF
KCGI 262325Z 2700/2724 VRB02KT P6SM SKC
      TEMPO 2709/2713 00000KT 2SM BR
     FM271500 05005KT P6SM FEW050=



000
FTUS43 KPAH 262325
TAFEVV
TAF
KEVV 262325Z 2700/2724 VRB02KT P6SM SKC
     FM271500 06004KT P6SM FEW050=



000
FTUS43 KPAH 261730
TAFPAH
TAF
KPAH 261730Z 2618/2718 36007KT P6SM SCT050
     FM270000 VRB02KT P6SM SKC
     FM271500 06005KT P6SM SKC=



000
FTUS43 KPAH 261730
TAFEVV
TAF
KEVV 261730Z 2618/2718 01006KT P6SM BKN050
     FM270000 04003KT P6SM FEW050=



000
FTUS43 KPAH 261730
TAFCGI
TAF
KCGI 261730Z 2618/2718 36007KT P6SM FEW050
     FM270000 01002KT P6SM SKC
     FM271500 05005KT P6SM SKC=



000
FTUS43 KPAH 261730
TAFPAH
TAF
KPAH 261730Z 2618/2718 36007KT P6SM SCT050
     FM270000 VRB02KT P6SM SKC
     FM271500 06005KT P6SM SKC=



000
FTUS43 KPAH 261730
TAFEVV
TAF
KEVV 261730Z 2618/2718 01006KT P6SM BKN050
     FM270000 04003KT P6SM FEW050=



000
FTUS43 KPAH 261730
TAFCGI
TAF
KCGI 261730Z 2618/2718 36007KT P6SM FEW050
     FM270000 01002KT P6SM SKC
     FM271500 05005KT P6SM SKC=



    US Dept of Commerce
    National Oceanic and Atmospheric Administration
    National Weather Service
    1325 East West Highway
    Silver Spring, MD 20910
    Page Author: NWS Internet Services Team
Disclaimer
Information Quality
Credits
Glossary
Privacy Policy
Freedom of Information Act (FOIA)
About Us
Career Opportunities